UKKK

Kiev Zhuliany International Airport

Kiev, Ukraine
TAF UKKK 181705Z 1818/1918 25005G11MPS 5000 BR OVC007 TX00/1818Z TNM08/1906Z TEMPO 1818/1906 28008G14MPS 1000 SHSN BLSN BKN004 BKN012CB PROB40 TEMPO 1818/1901 -FZRASN BKN003 BECMG 1906/1908 29003G08MPS 9999 NSW BKN010 TEMPO 1908/1912 2100 -SHSN SCT005 BKN015CB
Issued Valid From Valid To
Jan-18 @ 17:05 UTC
(3 hours ago)
Jan-18 @ 18:00 UTC
(2 hours ago)
Jan-19 @ 18:00 UTC
(in 22 hours)
Jan-18 @ 18:00 to Jan-19 @ 06:00
TAF UKKK 181705Z 1818/1918 25005G11MPS 5000 BR OVC007 TX00/1818Z TNM08/1906Z
Wind Visibility Clouds Conditions
250° at 10 knots
 Gusting to 21 knots
5,005 meters
  • Overcast at 700' AGL
  • Mist
Temporary  (Probability 40%) Jan-18 @ 18:00 to Jan-19 @ 01:00
PROB40 TEMPO 1818/1901 -FZRASN BKN003
Clouds Conditions
  • Broken at 300' AGL
  • Light Freezing
  • Light Rain
  • Snow
Temporary Jan-18 @ 18:00 to Jan-19 @ 06:00
TEMPO 1818/1906 28008G14MPS 1000 SHSN BLSN BKN004 BKN012CB
Wind Visibility Clouds Conditions
280° at 16 knots
 Gusting to 27 knots
998 meters
  • Broken at 400' AGL
  • Broken at 1,200' AGL
  • Snow
  • Blowing
  • Snow
Becoming Jan-19 @ 06:00 to Jan-19 @ 18:00
BECMG 1906/1908 29003G08MPS 9999 NSW BKN010
Wind Visibility Clouds Conditions
290° at 6 knots
 Gusting to 16 knots
10,000+ meters
  • Broken at 1,000' AGL
Temporary Jan-19 @ 08:00 to Jan-19 @ 12:00
TEMPO 1908/1912 2100 -SHSN SCT005 BKN015CB
Visibility Clouds Conditions
2,092 meters
  • Scattered at 500' AGL
  • Broken at 1,500' AGL
  • Light Snow
TAF UKKK 181705Z 1818/1918 25005G11MPS 5000 BR OVC007 TX00/1818Z TNM08/1906Z TEMPO 1818/1906 28008G14MPS 1000 SHSN BLSN BKN004 BKN012CB PROB40 TEMPO 1818/1901 -FZRASN BKN003 BECMG 1906/1908 29003G08MPS 9999 NSW BKN010 TEMPO 1908/1912 2100 -SHSN SCT005 BKN015CB
Issued Jan-18 @ 17:05 UTC
(3 hours ago)
Valid From Jan-18 @ 18:00 UTC
(2 hours ago)
Valid To Jan-19 @ 18:00 UTC
(in 22 hours)
Jan-18 @ 18:00 - Jan-19 @ 06:00
Wind Visibility
250° at 10 knots
 Gusting to 21 knots
5,005 meters
Clouds
  • Overcast at 700' AGL
Conditions
  • Mist
Probability 40% Temporary Jan-18 @ 18:00 - Jan-19 @ 01:00
Clouds
  • Broken at 300' AGL
Conditions
  • Light Freezing
  • Light Rain
  • Snow
Temporary Jan-18 @ 18:00 - Jan-19 @ 06:00
Wind Visibility
280° at 16 knots
 Gusting to 27 knots
998 meters
Clouds
  • Broken at 400' AGL
  • Broken at 1,200' AGL
Conditions
  • Snow
  • Blowing
  • Snow
Becoming Jan-19 @ 06:00 - Jan-19 @ 18:00
Wind Visibility
290° at 6 knots
 Gusting to 16 knots
10,000+ meters
Clouds
  • Broken at 1,000' AGL
Conditions
Temporary Jan-19 @ 08:00 - Jan-19 @ 12:00
Clouds
  • Scattered at 500' AGL
  • Broken at 1,500' AGL
Conditions
  • Light Snow